createdAt,value
2023-03-17T04:45:45.050Z,89.93
2023-03-17T04:48:13.397Z,91.28
2023-03-17T04:50:42.611Z,92.07
2023-03-17T04:53:10.887Z,91.24
2023-03-17T04:55:39.483Z,89.47
2023-03-17T04:58:09.246Z,88.52
2023-03-17T18:44:16.248Z,58.26
2023-03-17T18:46:45.126Z,58.68
2023-03-17T18:49:13.363Z,58.44
2023-03-17T18:51:42.158Z,58.49
2023-03-17T18:54:11.768Z,57.30
2023-03-17T18:56:40.174Z,56.84
2023-03-17T18:59:08.802Z,56.51
2023-03-17T19:01:37.572Z,57.88
2023-03-17T19:04:06.563Z,57.73
2023-03-17T19:06:36.193Z,57.10
2023-03-17T19:09:04.339Z,58.28
2023-03-17T19:11:33.664Z,59.22
2023-03-17T19:14:02.951Z,58.98
2023-03-17T19:16:32.020Z,57.55
2023-03-17T19:19:00.730Z,56.39
2023-03-17T19:21:29.377Z,55.97
2023-03-17T19:24:00.984Z,55.52
2023-03-17T19:26:31.288Z,55.63
2023-03-17T19:29:02.818Z,56.53
2023-03-17T19:31:31.609Z,57.56
2023-03-17T19:34:00.137Z,58.54
2023-03-17T19:36:34.968Z,58.73
2023-03-17T19:39:05.016Z,58.20
2023-03-17T19:41:33.820Z,58.41
2023-03-17T19:44:02.697Z,59.46
2023-03-17T19:46:31.243Z,61.00
2023-03-17T19:49:00.653Z,61.13
2023-03-17T19:51:30.458Z,61.29
2023-03-17T19:53:58.732Z,61.06
2023-03-17T19:56:28.406Z,61.50
2023-03-17T19:58:56.617Z,61.13
2023-03-17T20:01:25.462Z,60.33
2023-03-17T20:03:53.642Z,60.35
2023-03-17T20:06:21.969Z,59.82
2023-03-17T20:08:50.228Z,60.58
2023-03-17T20:11:19.652Z,61.66
2023-03-17T20:13:48.318Z,62.35
2023-03-17T20:16:17.571Z,62.37
2023-03-17T20:18:45.531Z,61.28
2023-03-17T20:21:14.712Z,60.96
2023-03-17T20:23:43.377Z,61.78
2023-03-17T20:26:11.955Z,62.96
2023-03-17T20:28:40.743Z,63.86
2023-03-17T20:31:09.967Z,62.84
2023-03-17T20:33:38.212Z,62.70
2023-03-17T20:36:06.843Z,63.79
2023-03-17T20:38:37.491Z,63.61
2023-03-17T20:41:11.853Z,64.10
2023-03-17T20:43:41.260Z,64.44
2023-03-17T20:46:15.492Z,64.79
2023-03-17T20:48:45.184Z,64.07
2023-03-17T20:51:17.328Z,63.79
2023-03-17T20:53:47.369Z,62.43
2023-03-17T20:56:17.169Z,64.03
2023-03-17T20:58:47.495Z,64.72
2023-03-17T21:01:20.861Z,63.79
2023-03-17T21:03:50.109Z,63.36
2023-03-17T21:06:19.294Z,63.51
2023-03-17T21:08:47.756Z,64.25
2023-03-17T21:11:18.962Z,65.53
2023-03-17T21:13:47.944Z,65.72
2023-03-17T21:16:22.702Z,65.50
2023-03-17T21:18:51.954Z,65.73
2023-03-17T21:21:21.262Z,66.95
2023-03-17T21:23:50.353Z,67.28
2023-03-17T21:26:19.248Z,67.56
2023-03-17T21:28:49.558Z,66.48
2023-03-17T21:31:17.808Z,66.91
2023-03-17T21:33:49.408Z,67.75
2023-03-17T21:36:18.456Z,68.63
2023-03-17T21:38:46.931Z,68.59
2023-03-17T21:41:23.155Z,69.82
2023-03-17T21:43:51.528Z,70.57
2023-03-17T21:46:19.586Z,70.81
2023-03-17T21:48:48.390Z,70.54
2023-03-17T21:51:16.897Z,70.72
2023-03-17T21:53:45.134Z,69.83
2023-03-17T21:56:14.800Z,71.02
2023-03-17T21:58:43.685Z,71.74
2023-03-17T22:01:12.942Z,72.18
2023-03-17T22:03:42.877Z,72.04
2023-03-17T22:06:13.460Z,71.88
2023-03-17T22:08:41.994Z,71.45
2023-03-17T22:11:12.514Z,72.76
2023-03-17T22:13:41.884Z,74.09
2023-03-17T22:16:11.445Z,73.76
2023-03-17T22:18:39.904Z,73.17
2023-03-17T22:21:11.799Z,71.98
2023-03-17T22:23:42.938Z,72.46
2023-03-17T22:26:22.488Z,73.13
2023-03-17T22:28:51.480Z,73.77
2023-03-17T22:31:24.835Z,74.17
2023-03-17T22:33:56.010Z,73.57
2023-03-17T22:36:25.699Z,73.02
2023-03-17T22:38:55.571Z,74.07
2023-03-17T22:41:26.587Z,75.05
2023-03-17T22:43:55.531Z,75.16
2023-03-17T22:46:25.049Z,73.70
2023-03-17T22:48:54.015Z,73.19
2023-03-17T22:51:25.532Z,73.90
2023-03-17T22:53:54.282Z,72.13
2023-03-17T22:56:23.056Z,72.46
2023-03-17T22:58:51.968Z,72.01
2023-03-17T23:01:23.872Z,73.69
2023-03-17T23:03:53.117Z,75.44
2023-03-17T23:06:22.495Z,74.93
2023-03-17T23:08:51.736Z,75.69
2023-03-17T23:11:24.010Z,75.82
2023-03-17T23:13:53.028Z,74.62
2023-03-17T23:16:22.872Z,74.13
2023-03-17T23:18:51.923Z,74.28
2023-03-17T23:21:30.405Z,74.45
2023-03-17T23:23:59.269Z,75.22
2023-03-17T23:26:28.133Z,76.25
2023-03-17T23:28:56.653Z,75.88
2023-03-17T23:31:26.061Z,76.14
2023-03-17T23:33:54.074Z,76.43
2023-03-17T23:36:30.753Z,77.13
2023-03-17T23:38:58.860Z,77.19
2023-03-17T23:41:27.790Z,78.79
2023-03-17T23:43:59.467Z,78.79
2023-03-17T23:46:29.208Z,78.37
2023-03-17T23:48:58.955Z,78.49
2023-03-17T23:51:27.939Z,79.06
2023-03-17T23:53:56.854Z,78.62
2023-03-17T23:56:25.665Z,78.81
2023-03-17T23:58:53.736Z,78.76
